createdAt,value
2023-01-22T00:00:23.113Z,992.488
2023-01-22T00:01:23.847Z,992.473
2023-01-22T00:02:23.529Z,992.548
2023-01-22T00:03:23.370Z,992.625
2023-01-22T00:04:23.564Z,992.670
2023-01-22T00:05:23.251Z,992.551
2023-01-22T00:06:23.963Z,992.593
2023-01-22T00:07:23.657Z,992.553
2023-01-22T00:08:23.256Z,992.485
2023-01-22T00:09:23.927Z,992.572
2023-01-22T00:10:23.713Z,992.640
2023-01-22T00:11:23.731Z,992.538
2023-01-22T00:12:23.451Z,992.579
2023-01-22T00:13:23.068Z,992.462
2023-01-22T00:14:23.855Z,992.470
2023-01-22T00:15:23.786Z,992.553
2023-01-22T00:16:23.740Z,992.457
2023-01-22T00:17:23.423Z,992.588
2023-01-22T00:18:23.087Z,992.635
2023-01-22T00:19:24.015Z,992.558
2023-01-22T00:20:23.662Z,992.727
2023-01-22T00:21:23.766Z,992.564
2023-01-22T00:22:23.411Z,992.523
2023-01-22T00:23:23.191Z,992.440
2023-01-22T00:24:23.874Z,992.408
2023-01-22T00:25:23.615Z,992.569
2023-01-22T00:26:23.454Z,992.579
2023-01-22T00:27:23.158Z,992.445
2023-01-22T00:28:23.987Z,992.478
2023-01-22T00:29:23.790Z,992.553
2023-01-22T00:30:23.455Z,992.439
2023-01-22T00:31:23.305Z,992.550
2023-01-22T00:32:23.587Z,992.424
2023-01-22T00:33:23.228Z,992.427
2023-01-22T00:34:23.936Z,992.496
2023-01-22T00:35:23.607Z,992.323
2023-01-22T00:36:23.316Z,992.359
2023-01-22T00:37:23.024Z,992.440
2023-01-22T00:38:23.635Z,992.231
2023-01-22T00:39:23.383Z,992.378
2023-01-22T00:40:23.079Z,992.465
2023-01-22T00:41:23.871Z,992.502
2023-01-22T00:42:23.544Z,992.488
2023-01-22T00:43:23.180Z,992.420
2023-01-22T00:44:23.924Z,992.485
2023-01-22T00:45:23.599Z,992.444
2023-01-22T00:46:23.265Z,992.388
2023-01-22T00:47:23.099Z,992.478
2023-01-22T00:48:23.768Z,992.381
2023-01-22T00:49:23.514Z,992.484
2023-01-22T00:50:23.181Z,992.431
2023-01-22T00:51:23.196Z,992.501
2023-01-22T00:52:23.943Z,992.518
2023-01-22T00:53:23.599Z,992.464
2023-01-22T00:54:23.627Z,992.563
2023-01-22T00:55:23.407Z,992.503
2023-01-22T00:56:23.250Z,992.538
2023-01-22T00:57:23.146Z,992.435
2023-01-22T00:58:23.070Z,992.522
2023-01-22T00:59:23.435Z,992.560
2023-01-22T01:00:23.091Z,992.534
2023-01-22T01:01:23.051Z,992.430
2023-01-22T01:02:23.872Z,992.508
2023-01-22T01:03:23.523Z,992.424
2023-01-22T01:04:23.603Z,992.591
2023-01-22T01:05:23.336Z,992.596
2023-01-22T01:06:24.002Z,992.609
2023-01-22T01:07:23.727Z,992.470
2023-01-22T01:08:23.724Z,992.504
2023-01-22T01:09:23.488Z,992.583
2023-01-22T01:10:23.292Z,992.536
2023-01-22T01:11:23.225Z,992.569
2023-01-22T01:12:23.911Z,992.519
2023-01-22T01:13:23.651Z,992.533
2023-01-22T01:14:23.532Z,992.549
2023-01-22T01:15:23.191Z,992.573
2023-01-22T01:16:23.103Z,992.391
2023-01-22T01:17:23.775Z,992.599
2023-01-22T01:18:23.459Z,992.666
2023-01-22T01:19:23.102Z,992.521
2023-01-22T01:20:23.731Z,992.597
2023-01-22T01:21:23.527Z,992.573
2023-01-22T01:22:23.119Z,992.565
2023-01-22T01:23:23.754Z,992.593
2023-01-22T01:24:23.386Z,992.633
2023-01-22T01:25:23.994Z,992.666
2023-01-22T01:26:23.740Z,992.681
2023-01-22T01:27:23.535Z,992.630
2023-01-22T01:28:23.217Z,992.661
2023-01-22T01:29:23.930Z,992.617
2023-01-22T01:30:23.621Z,992.617
2023-01-22T01:31:23.931Z,992.552
2023-01-22T01:32:23.939Z,992.524
2023-01-22T01:33:23.759Z,992.523
2023-01-22T01:34:23.540Z,992.545
2023-01-22T01:35:24.327Z,992.469
2023-01-22T01:36:35.719Z,992.578
2023-01-22T01:37:23.196Z,992.449
2023-01-22T01:38:23.827Z,992.530
2023-01-22T01:39:23.684Z,992.560
2023-01-22T01:40:23.420Z,992.519
2023-01-22T01:41:23.060Z,992.466
2023-01-22T01:42:23.903Z,992.542
2023-01-22T01:43:23.672Z,992.562
2023-01-22T01:44:23.502Z,992.382
2023-01-22T01:45:23.183Z,992.599
2023-01-22T01:46:23.859Z,992.445
2023-01-22T01:47:23.810Z,992.402
2023-01-22T01:48:23.503Z,992.422
2023-01-22T01:49:23.192Z,992.617
2023-01-22T01:50:23.902Z,992.546
2023-01-22T01:51:23.769Z,992.547
2023-01-22T01:52:23.415Z,992.516
2023-01-22T01:53:23.083Z,992.584
2023-01-22T01:54:23.890Z,992.468
2023-01-22T01:55:23.646Z,992.539
2023-01-22T01:56:23.328Z,992.575
2023-01-22T01:57:23.987Z,992.589
2023-01-22T01:58:23.634Z,992.500
2023-01-22T01:59:23.363Z,992.665
2023-01-22T02:00:23.041Z,992.673
2023-01-22T02:01:23.876Z,992.634
2023-01-22T02:02:23.763Z,992.632
2023-01-22T02:03:23.537Z,992.680
2023-01-22T02:04:23.200Z,992.646
2023-01-22T02:05:24.008Z,992.726
2023-01-22T02:06:23.717Z,992.693
2023-01-22T02:07:23.419Z,992.594
2023-01-22T02:08:23.072Z,992.685
2023-01-22T02:09:23.763Z,992.708
2023-01-22T02:10:23.572Z,992.753
2023-01-22T02:11:23.259Z,992.648
2023-01-22T02:12:24.052Z,992.669
2023-01-22T02:13:23.107Z,992.639
2023-01-22T02:14:23.826Z,992.750
2023-01-22T02:15:23.482Z,992.620
2023-01-22T02:16:23.367Z,992.850
2023-01-22T02:17:23.138Z,992.818
2023-01-22T02:18:23.931Z,992.835
2023-01-22T02:19:23.738Z,992.796
2023-01-22T02:20:23.603Z,992.852
2023-01-22T02:21:23.274Z,992.804
2023-01-22T02:22:23.939Z,992.830
2023-01-22T02:23:23.663Z,992.866
2023-01-22T02:24:23.448Z,992.864
2023-01-22T02:25:23.192Z,992.786
2023-01-22T02:26:23.932Z,992.841
2023-01-22T02:27:23.715Z,992.830
2023-01-22T02:28:23.714Z,992.916
2023-01-22T02:29:23.411Z,992.874
2023-01-22T02:30:23.172Z,992.834
2023-01-22T02:31:23.046Z,992.799
2023-01-22T02:32:23.055Z,992.779
2023-01-22T02:33:23.757Z,992.755
2023-01-22T02:34:23.435Z,992.884
2023-01-22T02:35:25.298Z,992.915
2023-01-22T02:36:23.930Z,992.711
2023-01-22T02:37:23.587Z,992.734
2023-01-22T02:38:23.191Z,992.769
2023-01-22T02:39:23.993Z,992.712
2023-01-22T02:40:23.814Z,992.876
2023-01-22T02:41:23.507Z,992.760
2023-01-22T02:42:23.179Z,992.828
2023-01-22T02:43:23.150Z,992.730
2023-01-22T02:44:23.799Z,992.569
2023-01-22T02:45:23.615Z,992.721
2023-01-22T02:46:23.771Z,992.771
2023-01-22T02:47:23.635Z,992.622
2023-01-22T02:48:23.368Z,992.679
2023-01-22T02:49:23.142Z,992.736
2023-01-22T02:50:23.952Z,992.654
2023-01-22T02:51:23.661Z,992.701
2023-01-22T02:52:23.407Z,992.650
2023-01-22T02:53:23.079Z,992.662
2023-01-22T02:54:23.755Z,992.693
2023-01-22T02:55:23.438Z,992.656
2023-01-22T02:56:23.343Z,992.709
2023-01-22T02:57:23.188Z,992.699
2023-01-22T02:58:23.879Z,992.856
2023-01-22T02:59:23.575Z,992.641
2023-01-22T03:00:23.342Z,992.819
2023-01-22T03:01:23.486Z,992.737
2023-01-22T03:02:23.439Z,992.801
2023-01-22T03:03:23.127Z,992.754
2023-01-22T03:04:23.808Z,992.746
2023-01-22T03:05:23.486Z,992.829
2023-01-22T03:06:23.426Z,992.824
2023-01-22T03:07:23.271Z,992.770
2023-01-22T03:08:23.967Z,992.684
2023-01-22T03:09:24.034Z,992.748
2023-01-22T03:10:23.890Z,992.759
2023-01-22T03:11:23.651Z,992.755
2023-01-22T03:12:23.422Z,992.852
2023-01-22T03:13:23.327Z,992.837
2023-01-22T03:14:23.019Z,992.813
2023-01-22T03:15:23.797Z,992.892
2023-01-22T03:16:23.495Z,992.743
2023-01-22T03:17:23.233Z,992.715
2023-01-22T03:18:24.007Z,992.767
2023-01-22T03:19:23.707Z,992.784
2023-01-22T03:20:23.400Z,992.817
2023-01-22T03:21:23.148Z,992.782
2023-01-22T03:22:23.920Z,992.725
2023-01-22T03:23:23.695Z,992.676
2023-01-22T03:24:23.342Z,992.785
2023-01-22T03:25:23.107Z,992.648
2023-01-22T03:26:23.932Z,992.842
2023-01-22T03:27:23.745Z,992.719
2023-01-22T03:28:23.599Z,992.766
2023-01-22T03:29:23.286Z,992.736
2023-01-22T03:30:23.130Z,992.652
2023-01-22T03:31:23.058Z,992.636
2023-01-22T03:32:23.034Z,992.630
2023-01-22T03:33:23.786Z,992.728
2023-01-22T03:34:23.602Z,992.755
2023-01-22T03:35:23.332Z,992.605
2023-01-22T03:36:23.010Z,992.770
2023-01-22T03:37:23.641Z,992.765
2023-01-22T03:38:23.620Z,992.712
2023-01-22T03:39:23.371Z,992.765
2023-01-22T03:40:23.431Z,992.873
2023-01-22T03:41:23.130Z,992.833
2023-01-22T03:42:23.832Z,992.688
2023-01-22T03:43:23.516Z,992.737
2023-01-22T03:44:23.231Z,992.871
2023-01-22T03:45:23.024Z,992.892
2023-01-22T03:46:23.001Z,992.706
2023-01-22T03:47:23.709Z,992.833
2023-01-22T03:48:23.401Z,992.867
2023-01-22T03:49:23.143Z,992.812
2023-01-22T03:50:23.933Z,992.788
2023-01-22T03:51:23.321Z,992.762
2023-01-22T03:52:23.078Z,992.817
2023-01-22T03:53:23.796Z,992.882
2023-01-22T03:54:23.658Z,992.905
2023-01-22T03:55:23.310Z,992.850
2023-01-22T03:56:23.069Z,992.823
2023-01-22T03:57:23.807Z,992.750
2023-01-22T03:58:23.662Z,992.865
2023-01-22T03:59:23.622Z,992.883
2023-01-22T04:00:23.407Z,992.812
2023-01-22T04:01:23.462Z,992.886
2023-01-22T04:02:23.302Z,992.813
2023-01-22T04:03:23.159Z,992.843
2023-01-22T04:04:23.890Z,992.885
2023-01-22T04:05:23.611Z,992.816
2023-01-22T04:06:23.466Z,992.883
2023-01-22T04:07:23.119Z,992.808
2023-01-22T04:08:23.788Z,992.782
2023-01-22T04:09:23.522Z,992.965
2023-01-22T04:10:23.349Z,992.917
2023-01-22T04:11:23.615Z,992.891
2023-01-22T04:12:23.264Z,992.965
2023-01-22T04:13:23.031Z,992.975
2023-01-22T04:14:23.865Z,993.069
2023-01-22T04:15:23.535Z,992.894
2023-01-22T04:16:24.553Z,992.956
2023-01-22T04:17:26.587Z,993.096
2023-01-22T04:18:23.804Z,993.034
2023-01-22T04:19:23.499Z,992.893
2023-01-22T04:20:23.269Z,993.053
2023-01-22T04:21:23.976Z,992.912
2023-01-22T04:22:23.674Z,992.977
2023-01-22T04:23:23.323Z,992.997
2023-01-22T04:24:23.966Z,992.974
2023-01-22T04:25:23.623Z,993.036
2023-01-22T04:26:23.418Z,992.959
2023-01-22T04:27:23.050Z,992.922
2023-01-22T04:28:23.746Z,993.194
2023-01-22T04:29:23.382Z,992.983
2023-01-22T04:30:23.113Z,993.012
2023-01-22T04:31:23.285Z,992.959
2023-01-22T04:32:23.243Z,993.073
2023-01-22T04:33:23.983Z,992.997
2023-01-22T04:34:23.606Z,993.133
2023-01-22T04:35:23.316Z,992.991
2023-01-22T04:36:23.003Z,993.131
2023-01-22T04:37:23.730Z,993.146
2023-01-22T04:38:23.500Z,993.121
2023-01-22T04:39:23.160Z,993.076
2023-01-22T04:40:23.951Z,993.146
2023-01-22T04:41:23.607Z,993.142
2023-01-22T04:42:23.368Z,993.132
2023-01-22T04:43:23.222Z,993.188
2023-01-22T04:44:22.991Z,993.235
2023-01-22T04:45:23.905Z,993.090
2023-01-22T04:46:23.810Z,993.145
2023-01-22T04:47:23.559Z,993.161
2023-01-22T04:48:23.274Z,993.162
2023-01-22T04:49:23.950Z,993.220
2023-01-22T04:50:23.735Z,993.184
2023-01-22T04:51:23.207Z,993.127
2023-01-22T04:52:23.928Z,993.188
2023-01-22T04:53:23.629Z,993.166
2023-01-22T04:54:23.274Z,993.186
2023-01-22T04:55:23.983Z,993.181
2023-01-22T04:56:23.714Z,993.230
2023-01-22T04:57:23.359Z,993.274
2023-01-22T04:58:23.055Z,993.193
2023-01-22T04:59:23.977Z,993.161
2023-01-22T05:00:23.632Z,993.098
2023-01-22T05:01:23.504Z,993.173
2023-01-22T05:02:23.325Z,993.220
2023-01-22T05:03:23.431Z,993.246
2023-01-22T05:04:23.232Z,993.145
2023-01-22T05:05:23.932Z,993.129
2023-01-22T05:06:23.868Z,993.219
2023-01-22T05:07:23.536Z,993.202
2023-01-22T05:08:23.367Z,993.311
2023-01-22T05:09:23.036Z,993.293
2023-01-22T05:10:23.813Z,993.227
2023-01-22T05:11:23.511Z,993.358
2023-01-22T05:12:23.123Z,993.347
2023-01-22T05:13:23.968Z,993.357
2023-01-22T05:14:23.605Z,993.413
2023-01-22T05:15:24.667Z,993.375
2023-01-22T05:16:23.848Z,993.314
2023-01-22T05:17:23.684Z,993.343
2023-01-22T05:18:23.537Z,993.427
2023-01-22T05:19:23.153Z,993.382
2023-01-22T05:20:23.104Z,993.358
2023-01-22T05:21:23.972Z,993.414
2023-01-22T05:22:23.690Z,993.367
2023-01-22T05:23:23.359Z,993.369
2023-01-22T05:24:23.086Z,993.357
2023-01-22T05:25:23.874Z,993.402
2023-01-22T05:26:23.682Z,993.422
2023-01-22T05:27:23.695Z,993.465
2023-01-22T05:28:23.555Z,993.414
2023-01-22T05:29:23.339Z,993.459
2023-01-22T05:30:24.034Z,993.468
2023-01-22T05:31:23.190Z,993.496
2023-01-22T05:32:23.246Z,993.495
2023-01-22T05:33:23.952Z,993.490
2023-01-22T05:34:23.692Z,993.543
2023-01-22T05:35:23.382Z,993.478
2023-01-22T05:36:23.276Z,993.373
2023-01-22T05:37:23.947Z,993.566
2023-01-22T05:38:23.598Z,993.469
2023-01-22T05:39:24.113Z,993.509
2023-01-22T05:40:23.886Z,993.508
2023-01-22T05:41:23.571Z,993.509
2023-01-22T05:42:23.231Z,993.370
2023-01-22T05:43:23.877Z,993.428
2023-01-22T05:44:23.595Z,993.517
2023-01-22T05:45:23.280Z,993.549
2023-01-22T05:46:23.025Z,993.584
2023-01-22T05:47:23.714Z,993.575
2023-01-22T05:48:23.368Z,993.457
2023-01-22T05:49:24.017Z,993.636
2023-01-22T05:50:23.723Z,993.505
2023-01-22T05:51:23.594Z,993.585
2023-01-22T05:52:23.299Z,993.485
2023-01-22T05:53:23.988Z,993.598
2023-01-22T05:54:23.683Z,993.457
2023-01-22T05:55:23.287Z,993.489
2023-01-22T05:56:23.974Z,993.601
2023-01-22T05:57:23.588Z,993.519
2023-01-22T05:58:23.222Z,993.583
2023-01-22T05:59:23.881Z,993.631
2023-01-22T06:00:23.536Z,993.615
2023-01-22T06:01:23.344Z,993.662
2023-01-22T06:02:23.116Z,993.567
2023-01-22T06:03:23.123Z,993.597
2023-01-22T06:04:23.987Z,993.667
2023-01-22T06:05:23.741Z,993.576
2023-01-22T06:06:23.487Z,993.596
2023-01-22T06:07:23.182Z,993.696
2023-01-22T06:08:23.769Z,993.704
2023-01-22T06:09:23.483Z,993.692
2023-01-22T06:10:23.113Z,993.611
2023-01-22T06:11:23.849Z,993.649
2023-01-22T06:12:23.492Z,993.666
2023-01-22T06:13:23.188Z,993.539
2023-01-22T06:14:24.001Z,993.701
2023-01-22T06:15:23.590Z,993.536
2023-01-22T06:16:23.674Z,993.612
2023-01-22T06:17:23.296Z,993.773
2023-01-22T06:18:23.939Z,993.697
2023-01-22T06:19:23.557Z,993.668
2023-01-22T06:20:23.144Z,993.785
2023-01-22T06:21:23.742Z,993.767
2023-01-22T06:22:23.349Z,993.631
2023-01-22T06:23:23.057Z,993.748
2023-01-22T06:24:23.699Z,993.603
2023-01-22T06:25:23.339Z,993.700
2023-01-22T06:26:23.013Z,993.791
2023-01-22T06:27:23.662Z,993.699
2023-01-22T06:28:23.335Z,993.727
2023-01-22T06:29:23.069Z,993.747
2023-01-22T06:30:23.811Z,993.544
2023-01-22T06:31:23.990Z,993.746
2023-01-22T06:32:23.847Z,993.845
2023-01-22T06:33:23.544Z,993.812
2023-01-22T06:34:23.219Z,993.883
2023-01-22T06:35:23.108Z,993.825
2023-01-22T06:36:23.793Z,993.901
2023-01-22T06:37:23.608Z,993.810
2023-01-22T06:38:23.265Z,993.854
2023-01-22T06:39:23.879Z,994.018
2023-01-22T06:40:23.667Z,993.848
2023-01-22T06:41:23.385Z,993.985
2023-01-22T06:42:23.162Z,993.898
2023-01-22T06:43:23.913Z,993.879
2023-01-22T06:44:23.579Z,993.892
2023-01-22T06:45:23.250Z,993.950
2023-01-22T06:46:23.920Z,993.964
2023-01-22T06:47:23.730Z,993.964
2023-01-22T06:48:23.471Z,993.952
2023-01-22T06:49:23.159Z,993.807
2023-01-22T06:50:23.826Z,993.947
2023-01-22T06:51:23.605Z,993.963
2023-01-22T06:52:23.264Z,994.102
2023-01-22T06:53:23.075Z,993.963
2023-01-22T06:54:23.644Z,993.836
2023-01-22T06:55:23.313Z,993.966
2023-01-22T06:56:23.031Z,993.955
2023-01-22T06:57:23.640Z,994.071
2023-01-22T06:58:23.337Z,994.140
2023-01-22T06:59:23.998Z,994.049
2023-01-22T07:00:23.867Z,994.040
2023-01-22T07:01:23.575Z,994.093
2023-01-22T07:02:23.589Z,994.143
2023-01-22T07:03:23.258Z,994.008
2023-01-22T07:04:23.144Z,994.115
2023-01-22T07:05:23.801Z,993.982
2023-01-22T07:06:23.517Z,994.065
2023-01-22T07:07:23.188Z,994.080
2023-01-22T07:08:23.842Z,994.139
2023-01-22T07:09:23.525Z,994.049
2023-01-22T07:10:23.159Z,994.148
2023-01-22T07:11:23.798Z,994.097
2023-01-22T07:12:23.603Z,994.124
2023-01-22T07:13:23.247Z,994.215
2023-01-22T07:14:35.892Z,994.215
2023-01-22T07:15:23.534Z,994.288
2023-01-22T07:16:23.186Z,994.270
2023-01-22T07:17:23.255Z,994.235
2023-01-22T07:18:23.933Z,994.195
2023-01-22T07:19:23.682Z,994.169
2023-01-22T07:20:23.514Z,994.162
2023-01-22T07:21:23.143Z,994.210
2023-01-22T07:22:23.902Z,994.318
2023-01-22T07:23:23.926Z,994.256
2023-01-22T07:24:23.589Z,994.367
2023-01-22T07:25:23.561Z,994.385
2023-01-22T07:26:23.209Z,994.424
2023-01-22T07:27:23.340Z,994.321
2023-01-22T07:28:23.079Z,994.399
2023-01-22T07:29:23.835Z,994.334
2023-01-22T07:30:23.676Z,994.440
2023-01-22T07:31:23.767Z,994.414
2023-01-22T07:32:23.723Z,994.404
2023-01-22T07:33:23.379Z,994.515
2023-01-22T07:34:23.097Z,994.229
2023-01-22T07:35:23.796Z,994.512
2023-01-22T07:36:23.537Z,994.408
2023-01-22T07:37:23.340Z,994.455
2023-01-22T07:38:23.092Z,994.499
2023-01-22T07:39:23.828Z,994.389
2023-01-22T07:40:23.594Z,994.363
2023-01-22T07:41:25.997Z,994.409
2023-01-22T07:42:23.198Z,994.469
2023-01-22T07:43:23.878Z,994.425
2023-01-22T07:44:23.719Z,994.452
2023-01-22T07:45:23.489Z,994.401
2023-01-22T07:46:23.255Z,994.464
2023-01-22T07:47:23.166Z,994.519
2023-01-22T07:48:23.833Z,994.445
2023-01-22T07:49:23.045Z,994.524
2023-01-22T07:50:23.772Z,994.488
2023-01-22T07:51:23.566Z,994.377
2023-01-22T07:52:23.289Z,994.515
2023-01-22T07:53:23.957Z,994.562
2023-01-22T07:54:23.687Z,994.479
2023-01-22T07:56:23.220Z,994.615
2023-01-22T07:57:23.999Z,994.560
2023-01-22T07:58:23.720Z,994.506
2023-01-22T07:59:23.551Z,994.644
2023-01-22T08:00:23.259Z,994.570
2023-01-22T08:01:23.537Z,994.563
2023-01-22T08:02:23.595Z,994.557
2023-01-22T08:03:23.352Z,994.609
2023-01-22T08:04:23.160Z,994.583
2023-01-22T08:05:23.861Z,994.485
2023-01-22T08:06:23.687Z,994.741
2023-01-22T08:07:23.427Z,994.699
2023-01-22T08:08:23.111Z,994.680
2023-01-22T08:09:23.815Z,994.742
2023-01-22T08:10:23.657Z,994.642
2023-01-22T08:11:23.347Z,994.729
2023-01-22T08:12:23.056Z,994.735
2023-01-22T08:13:23.241Z,994.700
2023-01-22T08:14:24.002Z,994.789
2023-01-22T08:15:23.727Z,994.700
2023-01-22T08:16:23.731Z,994.774
2023-01-22T08:17:23.616Z,994.822
2023-01-22T08:18:23.315Z,994.814
2023-01-22T08:19:23.992Z,994.799
2023-01-22T08:20:23.702Z,994.910
2023-01-22T08:21:23.502Z,994.859
2023-01-22T08:23:23.912Z,994.821
2023-01-22T08:24:23.571Z,994.945
2023-01-22T08:25:23.188Z,994.892
2023-01-22T08:26:23.961Z,994.949
2023-01-22T08:27:23.816Z,994.891
2023-01-22T08:28:23.504Z,994.868
2023-01-22T08:29:23.203Z,994.844
2023-01-22T08:30:23.877Z,994.824
2023-01-22T08:32:23.602Z,994.967
2023-01-22T08:33:23.488Z,994.911
2023-01-22T08:34:23.327Z,995.014
2023-01-22T08:35:24.465Z,995.029
2023-01-22T08:36:23.237Z,995.047
2023-01-22T08:37:23.907Z,994.955
2023-01-22T08:38:23.611Z,995.010
2023-01-22T08:39:23.289Z,995.104
2023-01-22T08:40:23.067Z,995.020
2023-01-22T08:41:23.810Z,995.039
2023-01-22T08:42:23.591Z,995.058
2023-01-22T08:43:23.510Z,995.152
2023-01-22T08:44:23.248Z,995.195
2023-01-22T08:45:23.954Z,995.191
2023-01-22T08:46:23.936Z,995.137
2023-01-22T08:47:23.554Z,995.219
2023-01-22T08:48:23.306Z,995.226
2023-01-22T08:49:24.002Z,995.195
2023-01-22T08:50:23.682Z,995.080
2023-01-22T08:51:23.548Z,995.189
2023-01-22T08:52:23.280Z,995.209
2023-01-22T08:53:23.064Z,995.078
2023-01-22T08:54:23.757Z,995.125
2023-01-22T08:55:23.484Z,995.180
2023-01-22T08:56:23.284Z,995.173
2023-01-22T08:57:24.000Z,995.177
2023-01-22T08:58:23.763Z,995.196
2023-01-22T08:59:23.479Z,995.248
2023-01-22T09:00:23.057Z,995.191
2023-01-22T09:01:24.027Z,995.278
2023-01-22T09:02:23.857Z,995.158
2023-01-22T09:03:23.586Z,995.200
2023-01-22T09:04:23.283Z,995.316
2023-01-22T09:05:23.975Z,995.197
2023-01-22T09:06:23.801Z,995.278
2023-01-22T09:07:23.521Z,995.275
2023-01-22T09:08:23.205Z,995.151
2023-01-22T09:09:23.869Z,995.203
2023-01-22T09:10:23.704Z,995.266
2023-01-22T09:11:23.537Z,995.396
2023-01-22T09:12:23.206Z,995.220
2023-01-22T09:13:23.994Z,995.237
2023-01-22T09:14:23.662Z,995.263
2023-01-22T09:15:23.469Z,995.385
2023-01-22T09:16:23.432Z,995.312
2023-01-22T09:17:23.094Z,995.389
2023-01-22T09:18:23.815Z,995.333
2023-01-22T09:19:23.546Z,995.414
2023-01-22T09:20:23.195Z,995.475
2023-01-22T09:21:23.916Z,995.372
2023-01-22T09:22:23.619Z,995.318
2023-01-22T09:23:23.341Z,995.356
2023-01-22T09:24:23.084Z,995.494
2023-01-22T09:25:23.788Z,995.447
2023-01-22T09:26:23.556Z,995.454
2023-01-22T09:27:23.207Z,995.268
2023-01-22T09:28:23.916Z,995.476
2023-01-22T09:29:23.575Z,995.414
2023-01-22T09:30:23.412Z,995.437
2023-01-22T09:31:23.216Z,995.436
2023-01-22T09:32:23.103Z,995.422
2023-01-22T09:33:23.824Z,995.423
2023-01-22T09:34:23.532Z,995.481
2023-01-22T09:35:23.271Z,995.525
2023-01-22T09:36:23.970Z,995.452
2023-01-22T09:37:23.680Z,995.522
2023-01-22T09:38:23.527Z,995.487
2023-01-22T09:39:23.210Z,995.538
2023-01-22T09:40:23.068Z,995.609
2023-01-22T09:41:23.837Z,995.570
2023-01-22T09:42:23.514Z,995.465
2023-01-22T09:43:23.175Z,995.580
2023-01-22T09:44:23.015Z,995.728
2023-01-22T09:45:23.690Z,995.643
2023-01-22T09:46:23.623Z,995.763
2023-01-22T09:47:23.274Z,995.714
2023-01-22T09:48:23.946Z,995.501
2023-01-22T09:49:23.611Z,995.650
2023-01-22T09:50:23.354Z,995.591
2023-01-22T09:51:24.127Z,995.633
2023-01-22T09:52:23.644Z,995.728
2023-01-22T09:53:23.303Z,995.690
2023-01-22T09:54:24.040Z,995.748
2023-01-22T09:55:23.979Z,995.665
2023-01-22T09:56:23.648Z,995.685
2023-01-22T09:57:31.432Z,995.804
2023-01-22T09:58:24.024Z,995.734
2023-01-22T09:59:23.787Z,995.712
2023-01-22T10:00:23.568Z,995.828
2023-01-22T10:01:23.097Z,995.672
2023-01-22T10:02:23.912Z,995.754
2023-01-22T10:03:23.698Z,995.710
2023-01-22T10:04:23.427Z,995.785
2023-01-22T10:05:23.137Z,995.711
2023-01-22T10:06:23.751Z,995.648
2023-01-22T10:07:23.410Z,995.745
2023-01-22T10:08:23.327Z,995.796
2023-01-22T10:09:23.053Z,995.858
2023-01-22T10:10:23.759Z,995.703
2023-01-22T10:11:23.415Z,995.672
2023-01-22T10:12:23.135Z,995.644
2023-01-22T10:13:23.806Z,995.642
2023-01-22T10:14:23.470Z,995.715
2023-01-22T10:15:23.150Z,995.745
2023-01-22T10:16:23.877Z,995.668
2023-01-22T10:17:23.799Z,995.622
2023-01-22T10:18:23.519Z,995.582
2023-01-22T10:19:23.228Z,995.587
2023-01-22T10:20:23.931Z,995.520
2023-01-22T10:21:23.643Z,995.548
2023-01-22T10:22:23.306Z,995.720
2023-01-22T10:23:24.041Z,995.589
2023-01-22T10:24:23.756Z,995.618
2023-01-22T10:25:23.460Z,995.553
2023-01-22T10:26:23.207Z,995.471
2023-01-22T10:27:23.859Z,995.526
2023-01-22T10:28:23.468Z,995.669
2023-01-22T10:29:23.202Z,995.731
2023-01-22T10:30:23.896Z,995.683
2023-01-22T10:31:24.019Z,995.557
2023-01-22T10:32:23.542Z,995.615
2023-01-22T10:33:23.140Z,995.641
2023-01-22T10:34:23.890Z,995.680
2023-01-22T10:35:23.547Z,995.695
2023-01-22T10:36:23.226Z,995.677
2023-01-22T10:37:23.962Z,995.628
2023-01-22T10:38:23.671Z,995.720
2023-01-22T10:39:23.372Z,995.730
2023-01-22T10:40:23.167Z,995.684
2023-01-22T10:41:23.938Z,995.741
2023-01-22T10:42:23.675Z,995.807
2023-01-22T10:43:23.331Z,995.841
2023-01-22T10:44:23.035Z,995.838
2023-01-22T10:45:23.754Z,995.775
2023-01-22T10:46:23.549Z,995.779
2023-01-22T10:47:23.355Z,995.611
2023-01-22T10:48:23.038Z,995.788
2023-01-22T10:49:23.921Z,995.726
2023-01-22T10:50:23.701Z,995.845
2023-01-22T10:51:23.692Z,995.824
2023-01-22T10:52:23.484Z,995.836
2023-01-22T10:53:23.329Z,995.881
2023-01-22T10:54:23.032Z,995.762
2023-01-22T10:55:23.058Z,995.862
2023-01-22T10:56:23.416Z,995.920
2023-01-22T10:57:23.489Z,995.842
2023-01-22T10:58:23.396Z,995.884
2023-01-22T10:59:23.356Z,995.817
2023-01-22T11:00:23.140Z,995.818
2023-01-22T11:01:23.804Z,995.877
2023-01-22T11:02:23.932Z,995.818
2023-01-22T11:03:23.770Z,995.888
2023-01-22T11:04:23.524Z,995.973
2023-01-22T11:05:23.271Z,995.833
2023-01-22T11:06:23.970Z,995.906
2023-01-22T11:07:23.683Z,995.958
2023-01-22T11:08:23.315Z,995.974
2023-01-22T11:09:23.060Z,995.957
2023-01-22T11:10:23.782Z,995.994
2023-01-22T11:11:23.419Z,995.929
2023-01-22T11:12:23.683Z,995.909
2023-01-22T11:13:23.422Z,995.882
2023-01-22T11:14:23.122Z,995.983
2023-01-22T11:15:23.908Z,995.972
2023-01-22T11:16:23.855Z,996.077
2023-01-22T11:17:23.568Z,996.057
2023-01-22T11:18:23.333Z,995.960
2023-01-22T11:19:36.212Z,996.022
2023-01-22T11:20:23.358Z,996.019
2023-01-22T11:21:23.280Z,996.074
2023-01-22T11:22:23.060Z,995.868
2023-01-22T11:23:23.891Z,995.977
2023-01-22T11:24:23.532Z,996.046
2023-01-22T11:25:23.351Z,995.957
2023-01-22T11:26:23.088Z,995.979
2023-01-22T11:27:23.796Z,995.929
2023-01-22T11:28:23.599Z,995.950
2023-01-22T11:29:23.344Z,995.925
2023-01-22T11:30:23.483Z,995.878
2023-01-22T11:31:23.203Z,995.873
2023-01-22T11:32:23.255Z,995.820
2023-01-22T11:33:23.955Z,995.869
2023-01-22T11:34:23.870Z,995.796
2023-01-22T11:35:23.667Z,995.851
2023-01-22T11:36:23.370Z,995.694
2023-01-22T11:37:23.263Z,995.752
2023-01-22T11:38:24.017Z,995.754
2023-01-22T11:39:23.714Z,995.895
2023-01-22T11:40:23.378Z,995.864
2023-01-22T11:41:23.132Z,995.776
2023-01-22T11:42:23.847Z,995.702
2023-01-22T11:43:23.644Z,995.761
2023-01-22T11:44:23.364Z,995.833
2023-01-22T11:45:23.097Z,995.791
2023-01-22T11:46:23.888Z,995.655
2023-01-22T11:47:23.725Z,995.745
2023-01-22T11:48:23.525Z,995.711
2023-01-22T11:49:23.319Z,995.750
2023-01-22T11:50:23.327Z,995.691
2023-01-22T11:51:23.383Z,995.698
2023-01-22T11:52:23.083Z,995.729
2023-01-22T11:53:23.821Z,995.780
2023-01-22T11:54:23.574Z,995.765
2023-01-22T11:55:23.308Z,995.694
2023-01-22T11:56:23.969Z,995.637
2023-01-22T11:57:23.742Z,995.628
2023-01-22T11:58:23.418Z,995.608
2023-01-22T11:59:23.076Z,995.507
2023-01-22T12:00:23.788Z,995.752
2023-01-22T12:01:23.646Z,995.771
2023-01-22T12:02:23.371Z,995.710
2023-01-22T12:03:23.384Z,995.711
2023-01-22T12:04:23.522Z,995.749
2023-01-22T12:05:23.189Z,995.714
2023-01-22T12:06:23.869Z,995.694
2023-01-22T12:07:23.542Z,995.658
2023-01-22T12:08:23.313Z,995.744